createdAt,value
2022-12-12T00:00:55.217Z,301.88
2022-12-12T00:02:01.318Z,263.40
2022-12-12T00:03:08.306Z,267.65
2022-12-12T00:04:15.944Z,277.82
2022-12-12T00:05:21.294Z,274.87
2022-12-12T00:06:28.730Z,279.17
2022-12-12T00:07:32.038Z,275.32
2022-12-12T00:08:38.128Z,267.67
2022-12-12T00:09:44.895Z,274.41
2022-12-12T00:10:48.366Z,272.27
2022-12-12T00:11:54.323Z,269.06
2022-12-12T00:12:57.703Z,277.09
2022-12-12T00:14:06.938Z,265.65
2022-12-12T00:15:11.961Z,278.13
2022-12-12T00:16:18.822Z,278.97
2022-12-12T00:17:22.225Z,287.11
2022-12-12T00:18:28.337Z,294.29
2022-12-12T00:19:31.844Z,280.72
2022-12-12T00:20:38.553Z,271.08
2022-12-12T00:21:41.974Z,271.48
2022-12-12T00:22:47.892Z,276.99
2022-12-12T00:23:52.723Z,278.34
2022-12-12T00:24:58.704Z,274.12
2022-12-12T00:26:08.828Z,286.17
2022-12-12T00:27:14.772Z,280.28
2022-12-12T00:28:18.277Z,272.02
2022-12-12T00:29:26.783Z,264.19
2022-12-12T00:30:30.104Z,271.32
2022-12-12T00:31:37.170Z,275.88
2022-12-12T00:32:40.622Z,294.68
2022-12-12T00:33:50.359Z,286.44
2022-12-12T00:34:53.870Z,275.77
2022-12-12T00:35:59.801Z,261.56
2022-12-12T00:37:06.637Z,261.40
2022-12-12T00:38:10.250Z,246.82
2022-12-12T00:39:18.450Z,247.02
2022-12-12T00:40:22.680Z,240.66
2022-12-12T00:41:29.705Z,237.13
2022-12-12T00:42:36.613Z,229.25
2022-12-12T00:43:40.005Z,236.54
2022-12-12T00:44:48.572Z,231.29
2022-12-12T00:45:52.531Z,220.73
2022-12-12T00:46:58.479Z,222.75
2022-12-12T00:48:02.659Z,223.02
2022-12-12T00:49:09.430Z,235.06
2022-12-12T00:50:13.950Z,230.50
2022-12-12T00:51:23.373Z,226.56
2022-12-12T00:52:29.309Z,227.87
2022-12-12T00:53:33.417Z,219.90
2022-12-12T00:54:39.317Z,224.45
2022-12-12T00:55:42.955Z,217.05
2022-12-12T00:56:48.923Z,224.85
2022-12-12T00:57:52.743Z,224.64
2022-12-12T00:58:59.518Z,222.71
2022-12-12T01:00:09.271Z,220.38
2022-12-12T01:01:17.220Z,230.14
2022-12-12T01:02:28.144Z,235.86
2022-12-12T01:03:33.970Z,237.12
2022-12-12T01:04:40.756Z,225.60
2022-12-12T01:05:44.265Z,226.02
2022-12-12T01:06:50.371Z,222.94
2022-12-12T01:07:54.410Z,219.73
2022-12-12T01:09:00.626Z,218.97
2022-12-12T01:10:07.434Z,221.70
2022-12-12T01:11:16.944Z,210.46
2022-12-12T01:12:20.250Z,212.82
2022-12-12T01:13:27.220Z,207.97
2022-12-12T01:14:33.303Z,212.13
2022-12-12T01:15:40.058Z,203.21
2022-12-12T01:16:46.015Z,206.65
2022-12-12T01:17:49.440Z,199.30
2022-12-12T01:18:55.966Z,211.50
2022-12-12T01:19:59.260Z,203.88
2022-12-12T01:21:07.175Z,200.54
2022-12-12T01:22:10.659Z,195.72
2022-12-12T01:23:17.858Z,203.51
2022-12-12T01:24:21.302Z,198.60
2022-12-12T01:25:27.568Z,200.23
2022-12-12T01:26:31.747Z,193.41
2022-12-12T01:27:37.672Z,183.21
2022-12-12T01:28:42.809Z,188.82
2022-12-12T01:29:48.592Z,182.86
2022-12-12T01:30:54.607Z,178.75
2022-12-12T01:32:01.343Z,180.50
2022-12-12T01:33:04.851Z,187.85
2022-12-12T01:34:11.309Z,182.65
2022-12-12T01:35:15.262Z,178.28
2022-12-12T01:36:25.434Z,184.27
2022-12-12T01:37:29.611Z,176.71
2022-12-12T01:38:35.701Z,178.37
2022-12-12T01:39:38.948Z,180.18
2022-12-12T01:40:45.256Z,180.21
2022-12-12T01:41:48.615Z,184.42
2022-12-12T01:42:56.700Z,174.92
2022-12-12T01:44:06.828Z,173.27
2022-12-12T01:46:09.235Z,184.70
2022-12-12T01:47:21.862Z,204.55
2022-12-12T01:48:34.513Z,194.97
2022-12-12T01:49:40.720Z,192.20
2022-12-12T01:50:45.974Z,192.89
2022-12-12T01:51:58.708Z,187.32
2022-12-12T01:53:02.154Z,176.24
2022-12-12T01:54:19.003Z,171.51
2022-12-12T01:55:28.619Z,179.53
2022-12-12T01:56:35.066Z,181.15
2022-12-12T01:57:50.102Z,182.66
2022-12-12T01:58:56.894Z,179.92
2022-12-12T02:00:10.397Z,187.29
2022-12-12T02:01:17.008Z,187.38
2022-12-12T02:02:25.602Z,192.16
2022-12-12T02:03:29.448Z,188.90
2022-12-12T02:04:36.062Z,192.20
2022-12-12T02:05:48.381Z,190.87
2022-12-12T02:06:55.991Z,199.61
2022-12-12T02:08:03.868Z,198.21
2022-12-12T02:09:15.492Z,205.54
2022-12-12T02:10:19.022Z,197.08
2022-12-12T02:11:25.931Z,186.14
2022-12-12T02:12:29.372Z,197.32
2022-12-12T02:13:38.797Z,190.20
2022-12-12T02:14:51.331Z,185.79
2022-12-12T02:16:10.377Z,196.63
2022-12-12T02:18:12.397Z,190.85
2022-12-12T02:20:03.515Z,195.01
2022-12-12T02:21:24.552Z,188.27
2022-12-12T02:23:16.946Z,195.04
2022-12-12T02:25:12.630Z,194.25
2022-12-12T02:27:13.019Z,192.64
2022-12-12T02:29:10.943Z,198.99
2022-12-12T02:30:24.673Z,188.23
2022-12-12T02:31:41.078Z,192.13
2022-12-12T02:33:13.593Z,190.18
2022-12-12T02:34:40.116Z,193.89
2022-12-12T02:36:15.968Z,191.90
2022-12-12T02:37:33.326Z,188.42
2022-12-12T02:38:56.164Z,181.50
2022-12-12T02:40:21.242Z,184.96
2022-12-12T02:41:39.490Z,187.50
2022-12-12T02:42:53.299Z,177.45
2022-12-12T02:44:17.618Z,174.92
2022-12-12T02:45:36.579Z,182.73
2022-12-12T02:46:59.376Z,181.21
2022-12-12T02:48:17.259Z,177.43
2022-12-12T02:49:34.541Z,190.31
2022-12-12T02:50:44.007Z,178.70
2022-12-12T02:51:54.642Z,183.08
2022-12-12T02:53:00.529Z,188.40
2022-12-12T02:54:16.182Z,194.95
2022-12-12T02:55:21.568Z,191.91
2022-12-12T02:56:53.271Z,180.11
2022-12-12T02:57:56.865Z,191.46
2022-12-12T02:59:02.823Z,198.91
2022-12-12T03:00:13.755Z,188.38
2022-12-12T03:01:45.017Z,190.85
2022-12-12T03:03:43.859Z,201.79
2022-12-12T03:05:28.878Z,195.52
2022-12-12T03:07:13.383Z,194.52
2022-12-12T03:08:45.088Z,188.00
2022-12-12T03:10:06.060Z,186.97
2022-12-12T03:11:21.744Z,180.63
2022-12-12T03:12:43.207Z,194.44
2022-12-12T03:13:58.080Z,184.09
2022-12-12T03:15:17.152Z,183.30
2022-12-12T03:16:29.837Z,197.95
2022-12-12T03:17:49.269Z,199.59
2022-12-12T03:19:09.279Z,208.55
2022-12-12T03:20:25.606Z,201.82
2022-12-12T03:21:44.555Z,207.27
2022-12-12T03:23:00.201Z,200.83
2022-12-12T03:24:14.216Z,191.58
2022-12-12T03:25:29.908Z,196.19
2022-12-12T03:26:50.490Z,184.95
2022-12-12T03:28:06.636Z,189.03
2022-12-12T03:29:20.861Z,179.35
2022-12-12T03:30:25.142Z,187.07
2022-12-12T03:31:37.913Z,182.87
2022-12-12T03:32:56.095Z,190.68
2022-12-12T03:34:10.228Z,193.93
2022-12-12T03:35:28.579Z,193.82
2022-12-12T03:36:41.134Z,190.76
2022-12-12T03:37:54.788Z,189.69
2022-12-12T03:39:11.925Z,198.43
2022-12-12T03:40:25.533Z,187.86
2022-12-12T03:41:43.263Z,183.74
2022-12-12T03:42:58.012Z,200.52
2022-12-12T03:44:15.153Z,228.58
2022-12-12T03:45:30.749Z,190.98
2022-12-12T03:46:49.449Z,193.19
2022-12-12T03:48:04.585Z,185.84
2022-12-12T03:49:23.300Z,185.02
2022-12-12T03:50:37.261Z,193.47
2022-12-12T03:51:53.160Z,183.18
2022-12-12T03:53:07.442Z,196.89
2022-12-12T03:54:27.004Z,191.46
2022-12-12T03:55:44.276Z,187.82
2022-12-12T03:57:00.332Z,184.76
2022-12-12T03:58:14.164Z,189.00
2022-12-12T03:59:29.391Z,187.22
2022-12-12T04:00:40.189Z,182.57
2022-12-12T04:02:00.829Z,192.02
2022-12-12T04:03:19.020Z,185.11
2022-12-12T04:04:39.800Z,185.13
2022-12-12T04:06:14.138Z,191.42
2022-12-12T04:07:31.047Z,177.24
2022-12-12T04:08:36.057Z,183.46
2022-12-12T04:09:55.613Z,185.95
2022-12-12T04:11:26.344Z,198.14
2022-12-12T04:12:56.773Z,185.20
2022-12-12T04:14:24.256Z,192.15
2022-12-12T04:16:00.418Z,192.80
2022-12-12T04:17:09.287Z,199.75
2022-12-12T04:18:28.062Z,196.84
2022-12-12T04:19:58.061Z,195.75
2022-12-12T04:21:35.460Z,190.20
2022-12-12T04:23:13.273Z,187.82
2022-12-12T04:24:33.526Z,188.01
2022-12-12T04:26:09.807Z,191.72
2022-12-12T04:27:28.711Z,188.02
2022-12-12T04:28:36.919Z,188.26
2022-12-12T04:29:56.724Z,190.81
2022-12-12T04:31:06.859Z,188.97
2022-12-12T04:32:25.675Z,185.14
2022-12-12T04:33:42.375Z,198.48
2022-12-12T04:35:01.765Z,205.97
2022-12-12T04:36:10.561Z,199.18
2022-12-12T04:37:25.801Z,200.12
2022-12-12T04:38:31.142Z,202.60
2022-12-12T04:39:46.402Z,195.31
2022-12-12T04:40:59.459Z,193.73
2022-12-12T04:42:13.612Z,191.46
2022-12-12T04:43:23.016Z,200.65
2022-12-12T04:44:36.284Z,191.19
2022-12-12T04:45:45.518Z,185.32
2022-12-12T04:46:59.617Z,190.05
2022-12-12T04:48:09.225Z,189.80
2022-12-12T04:49:22.571Z,190.26
2022-12-12T04:50:35.112Z,181.55
2022-12-12T04:51:49.001Z,191.19
2022-12-12T04:53:01.226Z,195.39
2022-12-12T04:54:21.607Z,194.00
2022-12-12T04:55:34.468Z,193.10
2022-12-12T04:56:46.891Z,194.59
2022-12-12T04:57:57.747Z,190.46
2022-12-12T04:59:05.958Z,194.13
2022-12-12T05:00:17.443Z,189.64
2022-12-12T05:01:39.653Z,202.79
2022-12-12T05:02:58.921Z,213.22
2022-12-12T05:04:14.126Z,198.30
2022-12-12T05:05:35.211Z,198.96
2022-12-12T05:06:46.662Z,204.89
2022-12-12T05:08:01.046Z,209.90
2022-12-12T05:09:07.040Z,236.90
2022-12-12T05:10:19.967Z,233.76
2022-12-12T05:11:23.853Z,237.79
2022-12-12T05:12:30.254Z,237.61
2022-12-12T05:13:36.997Z,235.15
2022-12-12T05:14:44.000Z,236.20
2022-12-12T05:15:53.497Z,219.69
2022-12-12T05:17:09.722Z,221.52
2022-12-12T05:18:13.639Z,227.35
2022-12-12T05:19:19.516Z,269.63
2022-12-12T05:20:23.647Z,280.23
2022-12-12T05:21:33.069Z,251.55
2022-12-12T05:22:36.332Z,250.15
2022-12-12T05:23:42.336Z,253.97
2022-12-12T05:24:45.659Z,254.93
2022-12-12T05:25:52.532Z,248.32
2022-12-12T05:26:55.966Z,244.82
2022-12-12T05:28:02.273Z,252.25
2022-12-12T05:29:08.626Z,262.31
2022-12-12T05:30:16.173Z,246.09
2022-12-12T05:31:20.654Z,250.53
2022-12-12T05:32:26.527Z,253.72
2022-12-12T05:33:29.764Z,266.70
2022-12-12T05:34:35.795Z,281.35
2022-12-12T05:35:40.577Z,290.96
2022-12-12T05:36:50.050Z,294.18
2022-12-12T05:37:53.563Z,300.91
2022-12-12T05:38:59.540Z,293.50
2022-12-12T05:40:04.895Z,285.30
2022-12-12T05:41:12.355Z,284.18
2022-12-12T05:42:19.146Z,279.16
2022-12-12T05:43:22.386Z,285.98
2022-12-12T05:44:28.413Z,336.17
2022-12-12T05:45:31.733Z,283.32
2022-12-12T05:46:37.664Z,325.86
2022-12-12T05:47:44.567Z,370.84
2022-12-12T05:48:50.810Z,362.57
2022-12-12T05:49:57.864Z,309.03
2022-12-12T05:51:03.017Z,306.97
2022-12-12T05:52:11.597Z,323.00
2022-12-12T05:53:16.158Z,309.02
2022-12-12T05:54:22.553Z,313.03
2022-12-12T05:55:27.472Z,323.50
2022-12-12T05:56:33.361Z,300.34
2022-12-12T05:57:36.861Z,313.72
2022-12-12T05:58:45.214Z,322.81
2022-12-12T05:59:49.233Z,376.90
2022-12-12T06:01:01.638Z,353.51
2022-12-12T06:02:12.076Z,301.07
2022-12-12T06:03:17.162Z,325.41
2022-12-12T06:04:25.342Z,308.56
2022-12-12T06:05:29.423Z,290.40
2022-12-12T06:06:35.347Z,290.18
2022-12-12T06:07:42.276Z,310.50
2022-12-12T06:08:48.217Z,353.88
2022-12-12T06:09:52.557Z,353.76
2022-12-12T06:10:58.633Z,317.33
2022-12-12T06:12:02.024Z,317.68
2022-12-12T06:13:08.375Z,311.58
2022-12-12T06:14:14.344Z,332.21
2022-12-12T06:15:19.157Z,341.34
2022-12-12T06:16:25.181Z,323.42
2022-12-12T06:17:33.154Z,288.80
2022-12-12T06:18:40.664Z,311.67
2022-12-12T06:19:44.932Z,354.61
2022-12-12T06:20:53.434Z,414.97
2022-12-12T06:21:57.134Z,406.72
2022-12-12T06:23:05.905Z,421.84
2022-12-12T06:24:12.677Z,352.07
2022-12-12T06:25:16.211Z,324.81
2022-12-12T06:26:25.226Z,298.69
2022-12-12T06:27:29.126Z,285.90
2022-12-12T06:28:36.332Z,289.58
2022-12-12T06:29:39.898Z,279.22
2022-12-12T06:30:46.074Z,299.74
2022-12-12T06:31:53.561Z,334.30
2022-12-12T06:33:00.529Z,332.25
2022-12-12T06:34:07.147Z,311.21
2022-12-12T06:35:12.834Z,330.53
2022-12-12T06:36:25.749Z,295.96
2022-12-12T06:37:32.782Z,281.86
2022-12-12T06:38:42.943Z,263.56
2022-12-12T06:39:47.285Z,252.39
2022-12-12T06:40:53.238Z,262.02
2022-12-12T06:41:59.740Z,267.10
2022-12-12T06:43:06.573Z,269.50
2022-12-12T06:44:10.135Z,267.67
2022-12-12T06:45:16.335Z,270.23
2022-12-12T06:46:26.982Z,269.32
2022-12-12T06:47:30.424Z,285.16
2022-12-12T06:48:39.178Z,290.22
2022-12-12T06:49:45.265Z,284.73
2022-12-12T06:50:48.720Z,259.75
2022-12-12T06:51:54.759Z,251.71
2022-12-12T06:53:00.639Z,273.87
2022-12-12T06:54:10.779Z,276.73
2022-12-12T06:55:14.563Z,267.82
2022-12-12T06:56:26.103Z,265.37
2022-12-12T06:57:33.033Z,278.00
2022-12-12T06:58:40.084Z,298.62
2022-12-12T06:59:48.307Z,316.37
2022-12-12T07:00:54.255Z,308.09
2022-12-12T07:02:02.647Z,310.64
2022-12-12T07:03:09.188Z,347.32
2022-12-12T07:04:16.828Z,343.48
2022-12-12T07:05:24.807Z,289.99
2022-12-12T07:06:28.291Z,283.17
2022-12-12T07:07:34.553Z,275.20
2022-12-12T07:08:39.252Z,282.48
2022-12-12T07:09:48.301Z,277.12
2022-12-12T07:10:52.697Z,279.18
2022-12-12T07:11:59.072Z,305.20
2022-12-12T07:13:02.368Z,315.33
2022-12-12T07:14:08.957Z,322.82
2022-12-12T07:15:15.583Z,334.15
2022-12-12T07:16:23.752Z,323.59
2022-12-12T07:17:29.854Z,322.98
2022-12-12T07:18:36.223Z,321.56
2022-12-12T07:19:42.277Z,317.30
2022-12-12T07:20:47.245Z,337.11
2022-12-12T07:21:53.910Z,343.83
2022-12-12T07:22:57.592Z,342.20
2022-12-12T07:24:03.590Z,357.92
2022-12-12T07:25:12.801Z,438.28
2022-12-12T07:26:19.817Z,397.78
2022-12-12T07:27:26.680Z,366.90
2022-12-12T07:28:30.134Z,399.15
2022-12-12T07:29:36.341Z,446.53
2022-12-12T07:30:43.967Z,438.13
2022-12-12T07:31:47.677Z,446.52
2022-12-12T07:32:54.884Z,431.37
2022-12-12T07:33:58.880Z,346.16
2022-12-12T07:35:05.016Z,340.46
2022-12-12T07:36:09.090Z,366.45
2022-12-12T07:37:15.172Z,356.62
2022-12-12T07:38:19.406Z,311.49
2022-12-12T07:39:25.352Z,296.61
2022-12-12T07:40:36.002Z,360.52
2022-12-12T07:41:42.036Z,364.45
2022-12-12T07:42:45.455Z,386.17
2022-12-12T07:43:53.438Z,337.37
2022-12-12T07:44:59.544Z,297.87
2022-12-12T07:46:03.015Z,301.66
2022-12-12T07:47:10.707Z,416.94
2022-12-12T07:48:15.404Z,541.18
2022-12-12T07:49:22.108Z,405.65
2022-12-12T07:50:26.177Z,371.73
2022-12-12T07:51:33.304Z,430.99
2022-12-12T07:52:36.784Z,348.07
2022-12-12T07:53:43.221Z,368.90
2022-12-12T07:54:50.121Z,490.11
2022-12-12T07:55:56.891Z,554.70
2022-12-12T07:57:03.205Z,486.72
2022-12-12T07:58:06.805Z,490.44
2022-12-12T07:59:12.847Z,514.12
2022-12-12T08:00:19.907Z,468.84
2022-12-12T08:01:30.470Z,365.92
2022-12-12T08:02:34.066Z,378.45
2022-12-12T08:03:40.170Z,390.41
2022-12-12T08:04:46.297Z,394.91
2022-12-12T08:05:50.613Z,367.00
2022-12-12T08:07:02.720Z,391.40
2022-12-12T08:08:09.540Z,360.43
2022-12-12T08:09:15.473Z,301.96
2022-12-12T08:10:19.050Z,294.27
2022-12-12T08:11:29.622Z,290.40
2022-12-12T08:12:33.723Z,323.68
2022-12-12T08:13:43.119Z,322.16
2022-12-12T08:14:49.281Z,339.38
2022-12-12T08:15:55.239Z,338.74
2022-12-12T08:17:03.211Z,344.41
2022-12-12T08:18:06.607Z,346.09
2022-12-12T08:19:12.554Z,363.05
2022-12-12T08:20:19.916Z,410.83
2022-12-12T08:21:27.387Z,498.37
2022-12-12T08:22:31.557Z,529.55
2022-12-12T08:23:37.550Z,515.85
2022-12-12T08:24:43.950Z,457.15
2022-12-12T08:25:47.380Z,381.95
2022-12-12T08:26:56.109Z,365.43
2022-12-12T08:28:02.923Z,349.43
2022-12-12T08:29:09.224Z,345.43
2022-12-12T08:30:16.591Z,331.39
2022-12-12T08:31:25.150Z,318.22
2022-12-12T08:32:31.287Z,354.95
2022-12-12T08:33:39.245Z,307.90
2022-12-12T08:34:45.148Z,338.27
2022-12-12T08:35:51.102Z,429.49
2022-12-12T08:36:57.177Z,417.10
2022-12-12T08:38:04.063Z,396.66
2022-12-12T08:39:16.185Z,346.53
2022-12-12T08:40:22.223Z,345.01
2022-12-12T08:41:28.554Z,357.85
2022-12-12T08:42:37.059Z,364.76
2022-12-12T08:43:45.759Z,392.33
2022-12-12T08:44:53.300Z,366.13
2022-12-12T08:46:03.939Z,324.23
2022-12-12T08:47:10.898Z,290.18
2022-12-12T08:48:14.335Z,299.32
2022-12-12T08:49:20.297Z,298.07
2022-12-12T08:50:29.848Z,315.89
2022-12-12T08:51:36.159Z,295.67
2022-12-12T08:52:42.397Z,288.65
2022-12-12T08:53:49.378Z,265.40
2022-12-12T08:54:52.822Z,278.13
2022-12-12T08:55:59.719Z,269.93
2022-12-12T08:57:05.814Z,262.56
2022-12-12T08:58:14.294Z,265.31
2022-12-12T08:59:22.137Z,281.95
2022-12-12T09:00:28.092Z,263.17
2022-12-12T09:01:35.322Z,267.99
2022-12-12T09:02:41.614Z,259.90
2022-12-12T09:03:48.333Z,278.38
2022-12-12T09:04:54.210Z,277.36
2022-12-12T09:06:00.624Z,269.81
2022-12-12T09:07:08.934Z,276.89
2022-12-12T09:08:15.854Z,293.18
2022-12-12T09:09:21.966Z,304.02
2022-12-12T09:10:28.549Z,291.58
2022-12-12T09:11:34.457Z,302.77
2022-12-12T09:12:42.042Z,310.38
2022-12-12T09:13:50.992Z,287.20
2022-12-12T09:14:56.896Z,299.41
2022-12-12T09:16:00.373Z,305.41
2022-12-12T09:17:06.876Z,301.69
2022-12-12T09:18:13.654Z,308.37
2022-12-12T09:19:20.327Z,308.22
2022-12-12T09:20:26.310Z,326.92
2022-12-12T09:21:29.837Z,310.64
2022-12-12T09:22:35.799Z,300.59
2022-12-12T09:23:42.782Z,286.49
2022-12-12T09:24:49.410Z,289.89
2022-12-12T09:25:54.260Z,299.82
2022-12-12T09:27:00.297Z,298.62
2022-12-12T09:28:06.408Z,302.94
2022-12-12T09:29:16.696Z,296.10
2022-12-12T09:30:23.068Z,294.11
2022-12-12T09:31:29.606Z,273.96
2022-12-12T09:32:35.580Z,264.39
2022-12-12T09:33:43.488Z,255.55
2022-12-12T09:34:50.360Z,257.22
2022-12-12T09:35:59.995Z,267.19
2022-12-12T09:37:06.143Z,290.73
2022-12-12T09:38:14.968Z,389.52
2022-12-12T09:39:21.947Z,368.19
2022-12-12T09:40:39.249Z,344.49
2022-12-12T09:41:45.249Z,359.19
2022-12-12T09:42:54.924Z,393.08
2022-12-12T09:44:06.780Z,418.79
2022-12-12T09:45:15.991Z,390.64
2022-12-12T09:46:37.817Z,390.70
2022-12-12T09:47:50.697Z,463.56
2022-12-12T09:49:14.195Z,409.84
2022-12-12T09:50:32.628Z,373.99
2022-12-12T09:51:38.067Z,442.77
2022-12-12T09:52:45.552Z,494.17
2022-12-12T09:53:51.809Z,425.69
2022-12-12T09:54:58.203Z,371.30
2022-12-12T09:56:16.882Z,291.59
2022-12-12T09:57:36.512Z,368.99
2022-12-12T09:58:57.223Z,314.67
2022-12-12T10:00:14.174Z,307.86
2022-12-12T10:01:34.664Z,336.21
2022-12-12T10:03:07.046Z,366.71
2022-12-12T10:04:35.161Z,390.32
2022-12-12T10:06:13.516Z,404.48
2022-12-12T10:07:30.448Z,320.96
2022-12-12T10:08:51.045Z,311.55
2022-12-12T10:10:16.090Z,297.27
2022-12-12T10:11:44.091Z,326.50
2022-12-12T10:12:53.188Z,348.74
2022-12-12T10:14:08.110Z,342.52
2022-12-12T10:15:32.834Z,339.97
2022-12-12T10:16:44.599Z,318.64
2022-12-12T10:17:52.668Z,322.87
2022-12-12T10:19:12.200Z,303.85
2022-12-12T10:20:25.112Z,377.07
2022-12-12T10:21:37.655Z,367.58
2022-12-12T10:22:56.688Z,361.57
2022-12-12T10:24:22.327Z,323.22
2022-12-12T10:25:44.192Z,292.20
2022-12-12T10:26:47.672Z,311.00
2022-12-12T10:27:59.251Z,312.95
2022-12-12T10:29:15.594Z,284.49
2022-12-12T10:30:24.296Z,298.72
2022-12-12T10:31:51.376Z,321.01
2022-12-12T10:33:22.063Z,294.86
2022-12-12T10:34:55.273Z,275.32
2022-12-12T10:36:20.759Z,267.68
2022-12-12T10:37:47.325Z,269.91
2022-12-12T10:39:17.326Z,315.34
2022-12-12T10:40:52.167Z,347.40
2022-12-12T10:42:12.643Z,348.51
2022-12-12T10:43:26.762Z,330.74
2022-12-12T10:45:05.610Z,305.52
2022-12-12T10:46:31.354Z,289.29
2022-12-12T10:47:40.320Z,295.80
2022-12-12T10:48:47.633Z,314.08
2022-12-12T10:50:10.051Z,334.74
2022-12-12T10:51:26.046Z,381.25
2022-12-12T10:52:31.919Z,368.71
2022-12-12T10:53:38.928Z,397.91
2022-12-12T10:54:51.335Z,384.37
2022-12-12T10:56:03.793Z,330.58
2022-12-12T10:57:20.054Z,292.17
2022-12-12T10:58:27.916Z,271.28
2022-12-12T10:59:33.867Z,290.53
2022-12-12T11:00:44.243Z,285.54
2022-12-12T11:02:11.117Z,289.30
2022-12-12T11:03:32.063Z,293.05
2022-12-12T11:04:40.249Z,348.58
2022-12-12T11:05:46.273Z,359.74
2022-12-12T11:06:56.529Z,293.00
2022-12-12T11:08:08.374Z,304.24
2022-12-12T11:09:23.529Z,362.01
2022-12-12T11:10:34.750Z,367.78
2022-12-12T11:11:40.876Z,335.73
2022-12-12T11:12:44.143Z,318.47
2022-12-12T11:13:56.851Z,329.70
2022-12-12T11:15:13.897Z,374.08
2022-12-12T11:16:26.211Z,363.05
2022-12-12T11:17:34.270Z,377.14
2022-12-12T11:18:42.919Z,335.01
2022-12-12T11:19:49.644Z,342.24
2022-12-12T11:21:12.572Z,336.19
2022-12-12T11:22:19.517Z,314.43
2022-12-12T11:23:31.935Z,321.57
2022-12-12T11:24:45.534Z,292.48
2022-12-12T11:26:01.051Z,370.97
2022-12-12T11:27:10.840Z,367.82
2022-12-12T11:28:28.720Z,403.68
2022-12-12T11:29:49.373Z,367.49
2022-12-12T11:30:59.672Z,341.31
2022-12-12T11:32:08.322Z,329.37
2022-12-12T11:33:26.301Z,312.43
2022-12-12T11:34:41.998Z,315.47
2022-12-12T11:35:49.570Z,296.93
2022-12-12T11:36:58.432Z,289.26
2022-12-12T11:38:10.728Z,268.54
2022-12-12T11:39:27.372Z,277.87
2022-12-12T11:40:37.781Z,276.24
2022-12-12T11:42:04.660Z,261.96
2022-12-12T11:43:32.422Z,260.65
2022-12-12T11:44:42.001Z,272.08
2022-12-12T11:46:05.657Z,268.41
2022-12-12T11:47:28.651Z,235.78
2022-12-12T11:48:59.865Z,235.40
2022-12-12T11:50:23.661Z,222.93
2022-12-12T11:51:40.409Z,220.86
2022-12-12T11:52:43.991Z,231.73
2022-12-12T11:53:50.044Z,252.49
2022-12-12T11:54:57.725Z,267.99
2022-12-12T11:56:32.624Z,260.75
2022-12-12T11:58:09.375Z,256.18
2022-12-12T12:00:00.369Z,237.00
2022-12-12T12:01:20.477Z,234.28
2022-12-12T12:03:07.470Z,222.22
2022-12-12T12:04:42.241Z,240.02
2022-12-12T12:06:16.490Z,229.65
2022-12-12T12:07:51.470Z,237.29
2022-12-12T12:09:22.045Z,232.05
2022-12-12T12:10:53.899Z,238.32
2022-12-12T12:12:13.265Z,256.25
2022-12-12T12:13:45.103Z,273.23
2022-12-12T12:15:21.894Z,250.40
2022-12-12T12:16:48.788Z,242.31
2022-12-12T12:18:34.613Z,234.57
2022-12-12T12:19:59.383Z,239.66
2022-12-12T12:21:31.709Z,257.70
2022-12-12T12:22:59.308Z,260.31
2022-12-12T12:24:58.079Z,262.33
2022-12-12T12:26:16.335Z,270.68
2022-12-12T12:27:39.753Z,266.43
2022-12-12T12:29:40.031Z,250.66
2022-12-12T12:31:03.441Z,245.03
2022-12-12T12:32:28.956Z,255.78
2022-12-12T12:34:04.833Z,273.01
2022-12-12T12:35:33.011Z,262.24
2022-12-12T12:37:05.034Z,251.61
2022-12-12T12:38:29.548Z,234.15
2022-12-12T12:40:10.620Z,222.27
2022-12-12T12:41:43.027Z,220.43
2022-12-12T12:43:23.747Z,219.02
2022-12-12T12:44:47.281Z,239.86
2022-12-12T12:46:04.114Z,256.17
2022-12-12T12:47:29.679Z,248.09
2022-12-12T12:48:44.094Z,235.15
2022-12-12T12:50:02.188Z,239.64
2022-12-12T12:51:21.809Z,263.41
2022-12-12T12:52:41.902Z,246.27
2022-12-12T12:53:58.078Z,256.94
2022-12-12T12:55:05.908Z,242.93
2022-12-12T12:56:26.878Z,244.17
2022-12-12T12:57:42.136Z,239.96
2022-12-12T12:58:53.089Z,250.50
2022-12-12T13:00:07.023Z,255.73
2022-12-12T13:01:24.205Z,251.29
2022-12-12T13:02:44.195Z,275.10
2022-12-12T13:04:04.353Z,284.93
2022-12-12T13:05:22.364Z,313.23
2022-12-12T13:06:50.681Z,298.49
2022-12-12T13:08:16.628Z,276.64
2022-12-12T13:09:37.205Z,256.12
2022-12-12T13:10:52.558Z,272.69
2022-12-12T13:12:13.444Z,288.15
2022-12-12T13:13:30.801Z,303.62
2022-12-12T13:14:48.565Z,294.48
2022-12-12T13:16:04.846Z,353.27
2022-12-12T13:17:33.961Z,351.48
2022-12-12T13:18:46.109Z,301.41
2022-12-12T13:19:59.003Z,309.80
2022-12-12T13:21:18.667Z,321.47
2022-12-12T13:22:43.807Z,346.54
2022-12-12T13:24:05.050Z,339.52
2022-12-12T13:25:24.843Z,320.62
2022-12-12T13:26:47.227Z,274.64
2022-12-12T13:27:58.874Z,284.67
2022-12-12T13:29:31.035Z,292.14
2022-12-12T13:31:01.768Z,311.78
2022-12-12T13:32:45.846Z,266.20
2022-12-12T13:34:04.524Z,266.84
2022-12-12T13:35:18.294Z,273.21
2022-12-12T13:36:30.421Z,279.88
2022-12-12T13:37:47.899Z,302.37
2022-12-12T13:39:03.585Z,301.20
2022-12-12T13:40:25.869Z,275.35
2022-12-12T13:42:01.487Z,300.01
2022-12-12T13:43:10.548Z,285.33
2022-12-12T13:44:50.821Z,272.52
2022-12-12T13:45:54.742Z,257.48
2022-12-12T13:47:00.927Z,254.24
2022-12-12T13:48:07.386Z,251.55
2022-12-12T13:49:31.575Z,260.47
2022-12-12T13:50:38.532Z,258.05
2022-12-12T13:51:44.507Z,247.64
2022-12-12T13:53:23.197Z,239.37
2022-12-12T13:55:22.175Z,230.78
2022-12-12T13:56:39.389Z,229.64
2022-12-12T13:58:34.988Z,240.65
2022-12-12T14:00:32.234Z,228.52
2022-12-12T14:01:41.020Z,216.05
2022-12-12T14:03:09.238Z,215.97
2022-12-12T14:04:32.119Z,218.54
2022-12-12T14:05:43.623Z,221.15
2022-12-12T14:07:05.277Z,211.96
2022-12-12T14:08:30.760Z,211.13
2022-12-12T14:09:50.092Z,213.32
2022-12-12T14:11:05.296Z,210.42
2022-12-12T14:12:27.506Z,215.07
2022-12-12T14:13:47.586Z,221.92
2022-12-12T14:15:03.808Z,217.65
2022-12-12T14:16:24.937Z,217.77
2022-12-12T14:17:42.094Z,217.15
2022-12-12T14:19:06.781Z,210.40
2022-12-12T14:20:33.647Z,216.70
2022-12-12T14:21:51.025Z,220.58
2022-12-12T14:23:31.249Z,227.07
2022-12-12T14:25:07.663Z,224.82
2022-12-12T14:26:56.202Z,239.36
2022-12-12T14:28:22.286Z,218.55
2022-12-12T14:29:32.326Z,216.48
2022-12-12T14:30:59.965Z,223.30
2022-12-12T14:32:38.640Z,224.15
2022-12-12T14:34:23.061Z,223.55
2022-12-12T14:35:44.870Z,230.08
2022-12-12T14:37:38.187Z,228.31
2022-12-12T14:39:07.509Z,236.10
2022-12-12T14:40:24.973Z,246.72
2022-12-12T14:41:41.571Z,253.71
2022-12-12T14:43:19.938Z,260.63
2022-12-12T14:44:36.394Z,284.78
2022-12-12T14:45:59.155Z,296.74
2022-12-12T14:47:11.365Z,282.85
2022-12-12T14:48:26.044Z,261.04
2022-12-12T14:49:29.391Z,246.44
2022-12-12T14:50:35.476Z,249.69
2022-12-12T14:51:43.261Z,258.37
2022-12-12T14:52:49.298Z,244.56
2022-12-12T14:53:59.072Z,235.23
2022-12-12T14:55:05.681Z,233.80
2022-12-12T14:56:16.421Z,227.52
2022-12-12T14:57:27.604Z,235.15
2022-12-12T14:58:41.977Z,235.23
2022-12-12T14:59:48.569Z,233.78
2022-12-12T15:00:57.241Z,246.90
2022-12-12T15:02:16.926Z,248.29
2022-12-12T15:03:41.736Z,242.29
2022-12-12T15:04:54.508Z,250.88
2022-12-12T15:06:31.865Z,251.13
2022-12-12T15:07:41.360Z,265.38
2022-12-12T15:08:45.741Z,260.01
2022-12-12T15:09:52.698Z,272.62
2022-12-12T15:10:59.336Z,270.34
2022-12-12T15:12:22.907Z,287.84
2022-12-12T15:13:28.950Z,285.53
2022-12-12T15:14:39.157Z,286.33
2022-12-12T15:15:46.609Z,274.48
2022-12-12T15:17:02.027Z,267.10